Time;durP1;ratioP1;P1;durP2;ratioP2;P2;SDS_P1;SDS_P2;PMS_P1;PMS_P2;Temp;Humidity;BMP_temperature;BMP_pressure;BME280_temperature;BME280_humidity;BME280_pressure;Samples;Min_cycle;Max_cycle;Signal;HPM_P1;HPM_P2
2022/06/09 00:01:57;;;;;;;43.25;15.45;;;14.30;99.90;;;;;;5031264;28;20044;-71
2022/06/09 00:04:30;;;;;;;30.52;11.75;;;14.30;99.90;;;;;;5015437;28;20126;-71
2022/06/09 00:07:06;;;;;;;41.92;12.55;;;14.30;99.90;;;;;;5039527;28;20040;-71
2022/06/09 00:09:37;;;;;;;42.00;12.93;;;14.20;99.90;;;;;;5012956;28;20041;-71
2022/06/09 00:12:04;;;;;;;50.42;12.98;;;14.20;99.90;;;;;;5031332;28;20044;-71
2022/06/09 00:14:29;;;;;;;39.22;11.90;;;14.20;99.90;;;;;;5032427;28;20067;-70
2022/06/09 00:16:56;;;;;;;31.60;10.85;;;14.20;99.90;;;;;;5030911;28;20037;-70
2022/06/09 00:19:22;;;;;;;36.80;12.73;;;14.10;99.90;;;;;;5032195;28;20409;-71
2022/06/09 00:21:48;;;;;;;45.58;12.15;;;14.10;99.90;;;;;;5032446;28;20048;-71
2022/06/09 00:24:13;;;;;;;27.25;9.88;;;14.10;99.90;;;;;;5032648;28;20037;-71
2022/06/09 00:26:39;;;;;;;32.05;10.80;;;14.00;99.90;;;;;;5030921;28;20067;-71
2022/06/09 00:29:05;;;;;;;28.38;12.18;;;13.90;99.90;;;;;;5031808;28;20528;-71
2022/06/09 00:31:31;;;;;;;32.17;12.25;;;13.90;99.90;;;;;;5030317;28;20044;-71
2022/06/09 00:33:57;;;;;;;33.17;11.93;;;13.90;99.90;;;;;;5033686;28;20097;-70
2022/06/09 00:36:23;;;;;;;38.58;11.98;;;13.90;99.90;;;;;;5014963;28;20049;-70
2022/06/09 00:38:49;;;;;;;42.67;11.65;;;13.80;99.90;;;;;;5031233;28;20048;-70
2022/06/09 00:41:14;;;;;;;32.65;11.07;;;13.80;99.90;;;;;;5015804;28;20037;-70
2022/06/09 00:43:42;;;;;;;27.42;10.02;;;13.70;99.90;;;;;;5032957;28;20041;-70
2022/06/09 00:46:10;;;;;;;39.35;11.27;;;13.70;99.90;;;;;;5027537;28;20045;-70
2022/06/09 00:48:53;;;;;;;30.02;10.98;;;13.60;99.90;;;;;;5031832;28;20049;-70
2022/06/09 00:51:27;;;;;;;49.60;11.88;;;13.60;99.90;;;;;;5032261;28;20198;-70
2022/06/09 00:53:58;;;;;;;34.60;12.02;;;13.50;99.90;;;;;;5045926;28;20049;-71
2022/06/09 00:56:25;;;;;;;41.95;12.00;;;13.50;99.90;;;;;;5027266;28;20167;-71
2022/06/09 00:58:53;;;;;;;34.70;12.23;;;13.40;99.90;;;;;;5013655;28;20087;-71
2022/06/09 01:01:19;;;;;;;47.75;12.82;;;13.40;99.90;;;;;;5029544;28;20048;-71
2022/06/09 01:03:59;;;;;;;40.30;12.60;;;13.40;99.90;;;;;;5032624;28;20055;-71
2022/06/09 01:06:30;;;;;;;28.75;10.90;;;13.30;99.90;;;;;;5028488;28;20127;-71
2022/06/09 01:09:04;;;;;;;32.17;9.85;;;13.30;99.90;;;;;;5029949;28;20048;-71
2022/06/09 01:11:30;;;;;;;49.30;13.38;;;13.30;99.90;;;;;;5032265;28;20040;-71
2022/06/09 01:13:57;;;;;;;29.20;10.93;;;13.30;99.90;;;;;;5028941;28;20049;-71
2022/06/09 01:16:42;;;;;;;57.50;14.60;;;13.20;99.90;;;;;;5025290;28;20151;-71
2022/06/09 01:19:34;;;;;;;33.85;13.90;;;13.20;99.90;;;;;;5032676;28;20056;-71
2022/06/09 01:23:04;;;;;;;39.50;11.98;;;13.20;99.90;;;;;;5027701;28;20641;-71
2022/06/09 01:25:43;;;;;;;40.38;12.98;;;13.20;99.90;;;;;;4968537;28;20120;-71
2022/06/09 01:28:35;;;;;;;57.08;15.57;;;13.20;99.90;;;;;;5031354;28;20472;-71
2022/06/09 01:31:04;;;;;;;42.83;15.00;;;13.20;99.90;;;;;;5016912;28;20163;-71
2022/06/09 01:33:47;;;;;;;28.05;12.10;;;13.20;99.90;;;;;;5013138;28;20053;-71
2022/06/09 01:36:19;;;;;;;43.58;14.38;;;13.20;99.90;;;;;;5030660;28;20135;-71
2022/06/09 01:38:53;;;;;;;45.83;13.55;;;13.20;99.90;;;;;;5046358;28;20500;-71
2022/06/09 01:41:20;;;;;;;46.97;13.73;;;13.20;99.90;;;;;;5029269;28;20365;-71
2022/06/09 01:43:47;;;;;;;48.40;15.07;;;13.20;99.90;;;;;;5032034;28;20033;-71
2022/06/09 01:46:33;;;;;;;27.52;12.00;;;13.20;99.90;;;;;;5027068;28;20045;-71
2022/06/09 01:49:07;;;;;;;34.05;11.52;;;13.10;99.90;;;;;;5030951;28;20506;-71
2022/06/09 01:51:35;;;;;;;36.72;12.50;;;13.10;99.90;;;;;;5027649;28;20485;-71
2022/06/09 01:54:16;;;;;;;40.80;12.70;;;13.00;99.90;;;;;;5028789;28;20479;-71
2022/06/09 01:56:50;;;;;;;45.47;14.05;;;12.90;99.90;;;;;;5029837;28;20065;-71
2022/06/09 01:59:24;;;;;;;57.72;14.68;;;12.90;99.90;;;;;;5032472;28;20117;-71
2022/06/09 02:01:54;;;;;;;;;;;12.80;99.90;;;;;;5027632;28;20045;-70
2022/06/09 02:04:44;;;;;;;41.17;11.02;;;12.70;99.90;;;;;;5019418;28;20275;-71
2022/06/09 02:07:12;;;;;;;38.17;12.45;;;12.70;99.90;;;;;;5016194;28;20140;-71
2022/06/09 02:09:38;;;;;;;31.58;11.13;;;12.70;99.90;;;;;;5035162;28;20131;-71
2022/06/09 02:12:09;;;;;;;25.58;9.88;;;12.60;99.90;;;;;;5033300;28;20072;-71
2022/06/09 02:14:38;;;;;;;33.80;10.43;;;12.60;99.90;;;;;;5034819;28;20037;-71
2022/06/09 02:17:06;;;;;;;53.80;13.95;;;12.50;99.90;;;;;;5034746;28;20107;-71
2022/06/09 02:19:33;;;;;;;27.05;10.43;;;12.50;99.90;;;;;;5035734;28;20083;-71
2022/06/09 02:21:59;;;;;;;45.22;14.20;;;12.50;99.90;;;;;;5034175;28;20049;-72
2022/06/09 02:24:25;;;;;;;38.75;12.05;;;12.50;99.90;;;;;;5017666;28;20473;-71
2022/06/09 02:26:51;;;;;;;34.08;10.57;;;12.40;99.90;;;;;;5032622;28;20189;-71
2022/06/09 02:29:16;;;;;;;45.05;13.32;;;12.40;99.90;;;;;;5034192;28;20128;-71
2022/06/09 02:31:42;;;;;;;55.90;13.10;;;12.30;99.90;;;;;;5031454;28;20052;-71
2022/06/09 02:34:09;;;;;;;48.42;14.13;;;12.40;99.90;;;;;;5035574;28;20041;-71
2022/06/09 02:36:35;;;;;;;30.40;10.43;;;12.30;99.90;;;;;;5050842;28;20037;-71
2022/06/09 02:39:01;;;;;;;40.10;12.20;;;12.20;99.90;;;;;;5018044;28;20033;-71
2022/06/09 02:41:27;;;;;;;34.08;11.65;;;12.30;99.90;;;;;;5031901;28;20041;-71
2022/06/09 02:43:52;;;;;;;39.47;12.25;;;12.20;99.90;;;;;;5034081;28;20044;-71
2022/06/09 02:46:18;;;;;;;32.25;11.00;;;12.30;99.90;;;;;;5031636;28;20033;-71
2022/06/09 02:48:44;;;;;;;21.15;9.15;;;12.20;99.90;;;;;;5034740;28;20163;-71
2022/06/09 02:51:27;;;;;;;56.33;14.63;;;12.20;99.90;;;;;;5017067;28;20442;-72
2022/06/09 02:53:54;;;;;;;52.67;14.38;;;12.20;99.90;;;;;;5033199;28;20056;-71
2022/06/09 02:56:20;;;;;;;26.67;10.07;;;12.20;99.90;;;;;;5031360;28;20060;-71
2022/06/09 02:58:46;;;;;;;32.10;11.43;;;12.10;99.90;;;;;;5015704;28;20068;-71
2022/06/09 03:01:11;;;;;;;29.35;10.88;;;12.20;99.90;;;;;;5031685;28;20369;-71
2022/06/09 03:03:37;;;;;;;31.17;11.75;;;12.20;99.90;;;;;;5018175;28;20118;-71
2022/06/09 03:06:03;;;;;;;28.77;11.27;;;12.10;99.90;;;;;;5016146;28;20698;-71
2022/06/09 03:08:30;;;;;;;38.50;13.13;;;12.10;99.90;;;;;;5033230;28;20626;-71
2022/06/09 03:10:56;;;;;;;38.78;13.48;;;12.10;99.90;;;;;;5015420;28;20052;-71
2022/06/09 03:13:21;;;;;;;31.02;12.18;;;12.10;99.90;;;;;;5016730;28;20507;-71
2022/06/09 03:15:48;;;;;;;33.55;12.18;;;12.10;99.90;;;;;;5031051;28;20057;-71
2022/06/09 03:18:17;;;;;;;32.90;12.15;;;12.10;99.90;;;;;;5032238;28;20037;-71
2022/06/09 03:20:44;;;;;;;28.27;10.90;;;12.10;99.90;;;;;;5033299;28;20036;-71
2022/06/09 03:23:10;;;;;;;44.38;13.05;;;12.10;99.90;;;;;;5032591;28;20049;-71
2022/06/09 03:25:36;;;;;;;25.92;9.77;;;12.10;99.90;;;;;;5015777;28;20043;-71
2022/06/09 03:28:02;;;;;;;19.15;8.88;;;12.00;99.90;;;;;;5031531;28;20504;-71
2022/06/09 03:30:28;;;;;;;33.15;11.82;;;12.00;99.90;;;;;;5028499;28;20111;-71
2022/06/09 03:32:54;;;;;;;31.25;12.35;;;12.00;99.90;;;;;;5031755;28;20049;-71
2022/06/09 03:35:19;;;;;;;49.17;13.38;;;12.00;99.90;;;;;;5034503;28;20111;-71
2022/06/09 03:37:45;;;;;;;33.90;12.98;;;12.00;99.90;;;;;;5026606;28;20042;-71
2022/06/09 03:40:15;;;;;;;30.15;11.50;;;12.00;99.90;;;;;;5032312;28;20036;-71
2022/06/09 03:42:41;;;;;;;48.25;12.90;;;11.90;99.90;;;;;;5031825;28;20045;-71
2022/06/09 03:45:08;;;;;;;24.30;11.00;;;12.00;99.90;;;;;;5017527;28;20484;-71
2022/06/09 03:47:34;;;;;;;49.10;14.98;;;11.90;99.90;;;;;;5031460;28;20043;-71
2022/06/09 03:49:59;;;;;;;25.63;10.65;;;12.00;99.90;;;;;;5034704;28;20045;-71
2022/06/09 03:52:25;;;;;;;24.55;11.10;;;11.90;99.90;;;;;;5028096;28;20132;-71
2022/06/09 03:54:51;;;;;;;33.38;12.50;;;12.00;99.90;;;;;;5014172;28;20538;-71
2022/06/09 03:57:17;;;;;;;32.20;13.48;;;12.00;99.90;;;;;;5027236;28;20040;-71
2022/06/09 03:59:43;;;;;;;40.88;14.43;;;12.10;99.90;;;;;;5025533;28;20046;-71
2022/06/09 04:02:09;;;;;;;81.50;21.35;;;12.10;99.90;;;;;;5027620;28;20041;-71
2022/06/09 04:04:34;;;;;;;87.20;22.00;;;12.20;99.90;;;;;;5029965;28;20053;-71
2022/06/09 04:07:00;;;;;;;61.95;21.05;;;12.30;99.90;;;;;;5028663;28;20059;-71
2022/06/09 04:09:26;;;;;;;59.00;18.00;;;12.40;99.90;;;;;;5030555;28;20045;-71
2022/06/09 04:11:51;;;;;;;61.53;18.95;;;12.40;99.90;;;;;;5025445;28;20042;-70
2022/06/09 04:14:17;;;;;;;59.55;18.33;;;12.50;99.90;;;;;;5029984;28;20061;-70
2022/06/09 04:16:44;;;;;;;56.15;19.38;;;12.60;99.90;;;;;;5010194;28;20041;-70
2022/06/09 04:19:13;;;;;;;43.47;16.52;;;12.70;99.90;;;;;;5028303;28;20056;-70
2022/06/09 04:21:40;;;;;;;52.17;17.88;;;12.70;99.90;;;;;;5023661;28;20620;-70
2022/06/09 04:24:06;;;;;;;37.42;16.63;;;12.80;99.90;;;;;;5011546;28;20076;-70
2022/06/09 04:26:35;;;;;;;32.17;15.15;;;12.90;99.90;;;;;;5005847;28;20037;-70
2022/06/09 04:29:02;;;;;;;61.00;34.60;;;13.00;99.90;;;;;;5027390;28;20096;-70
2022/06/09 04:31:28;;;;;;;42.70;17.20;;;13.10;99.90;;;;;;5024250;28;20552;-70
2022/06/09 04:33:53;;;;;;;30.48;12.45;;;13.10;99.90;;;;;;5006742;28;20046;-70
2022/06/09 04:36:20;;;;;;;29.83;13.45;;;13.20;99.90;;;;;;5025752;28;20124;-70
2022/06/09 04:38:45;;;;;;;34.05;14.30;;;13.30;99.90;;;;;;5010475;28;20049;-70
2022/06/09 04:41:13;;;;;;;32.70;13.13;;;13.30;99.90;;;;;;5024062;28;20037;-70
2022/06/09 04:43:41;;;;;;;29.13;12.52;;;13.40;99.90;;;;;;5025389;28;20517;-70
2022/06/09 04:46:09;;;;;;;28.42;13.45;;;13.40;99.90;;;;;;5026808;28;20497;-70
2022/06/09 04:48:36;;;;;;;25.00;12.43;;;13.60;99.90;;;;;;5028482;28;20064;-70
2022/06/09 04:51:04;;;;;;;33.75;13.85;;;13.60;99.90;;;;;;5028901;28;20068;-71
2022/06/09 04:53:30;;;;;;;29.02;13.18;;;13.70;99.90;;;;;;5026302;28;20573;-71
2022/06/09 04:55:56;;;;;;;29.92;13.70;;;13.70;99.90;;;;;;5028323;28;20153;-71
2022/06/09 04:58:23;;;;;;;19.77;9.32;;;13.80;99.90;;;;;;5024114;28;20046;-71
2022/06/09 05:00:48;;;;;;;28.13;10.82;;;13.80;99.90;;;;;;5017547;28;20049;-71
2022/06/09 05:03:14;;;;;;;15.00;8.90;;;13.90;99.90;;;;;;5025727;28;20128;-71
2022/06/09 05:05:43;;;;;;;25.05;10.70;;;13.90;99.90;;;;;;5025178;28;20053;-71
2022/06/09 05:08:11;;;;;;;27.48;10.55;;;14.00;99.90;;;;;;5024743;28;21119;-70
2022/06/09 05:10:36;;;;;;;23.55;10.80;;;14.00;99.90;;;;;;5025498;28;20046;-70
2022/06/09 05:13:05;;;;;;;17.25;8.70;;;14.00;99.90;;;;;;5022172;28;20069;-70
2022/06/09 05:15:33;;;;;;;19.83;8.98;;;14.20;99.90;;;;;;5026970;28;20196;-70
2022/06/09 05:17:58;;;;;;;17.75;8.57;;;14.20;99.90;;;;;;5028109;28;20034;-71
2022/06/09 05:20:24;;;;;;;17.13;8.98;;;14.30;99.90;;;;;;5028593;28;20068;-71
2022/06/09 05:22:51;;;;;;;22.00;9.60;;;14.30;99.90;;;;;;5026715;28;20159;-71
2022/06/09 05:25:17;;;;;;;19.35;8.25;;;14.40;99.90;;;;;;5026942;28;20051;-71
2022/06/09 05:27:44;;;;;;;18.42;7.88;;;14.50;99.90;;;;;;5027638;28;20041;-71
2022/06/09 05:30:21;;;;;;;23.05;9.25;;;14.50;99.90;;;;;;5029289;28;20049;-71
2022/06/09 05:32:47;;;;;;;19.00;7.63;;;14.50;99.90;;;;;;5023767;28;20481;-71
2022/06/09 05:35:13;;;;;;;18.45;8.82;;;14.50;99.90;;;;;;5028542;28;20462;-71
2022/06/09 05:46:01;;;;;;;21.15;11.23;;;14.40;99.90;;;;;;5026623;28;20171;-72
2022/06/09 05:48:27;;;;;;;20.75;12.95;;;14.40;99.90;;;;;;5025591;28;20041;-71
2022/06/09 05:50:54;;;;;;;18.83;11.60;;;14.40;99.90;;;;;;5030556;28;20076;-71
2022/06/09 05:53:20;;;;;;;28.10;11.38;;;14.40;99.90;;;;;;5030083;28;20459;-71
2022/06/09 05:55:46;;;;;;;16.95;10.93;;;14.40;99.90;;;;;;5017307;28;20388;-71
2022/06/09 05:58:12;;;;;;;13.93;8.73;;;14.50;99.90;;;;;;5033880;28;20119;-71
2022/06/09 06:00:41;;;;;;;16.85;8.80;;;14.50;99.90;;;;;;5018540;28;20821;-72
2022/06/09 06:03:08;;;;;;;19.08;10.02;;;14.50;99.90;;;;;;5034559;28;20051;-72
2022/06/09 06:08:18;;;;;;;24.40;13.48;;;14.50;99.90;;;;;;5034408;28;20102;-71
2022/06/09 06:10:43;;;;;;;26.10;13.75;;;14.60;99.90;;;;;;5035552;28;20124;-71
2022/06/09 06:13:09;;;;;;;20.52;13.20;;;14.60;99.90;;;;;;5025397;28;20154;-71
2022/06/09 06:15:35;;;;;;;18.13;12.27;;;14.60;99.90;;;;;;5035526;28;20534;-71
2022/06/09 06:18:03;;;;;;;18.70;11.55;;;14.60;99.90;;;;;;5035618;28;20048;-72
2022/06/09 06:20:30;;;;;;;15.85;12.82;;;14.60;99.90;;;;;;5036013;28;20288;-72
2022/06/09 06:22:56;;;;;;;23.55;15.50;;;14.70;99.90;;;;;;5032845;28;20088;-72
2022/06/09 06:25:23;;;;;;;20.55;14.88;;;14.70;99.90;;;;;;5035705;28;20084;-72
2022/06/09 06:27:49;;;;;;;16.35;13.85;;;14.70;99.90;;;;;;5018807;28;20408;-72
2022/06/09 06:30:15;;;;;;;20.52;13.63;;;14.70;99.90;;;;;;5036002;28;20156;-72
2022/06/09 06:32:40;;;;;;;20.90;16.25;;;14.80;99.90;;;;;;5017349;28;20485;-72
2022/06/09 06:35:07;;;;;;;23.35;15.05;;;14.80;99.90;;;;;;5035585;28;20053;-72
2022/06/09 06:37:33;;;;;;;17.75;14.70;;;14.90;99.90;;;;;;5033604;28;20179;-72
2022/06/09 06:39:59;;;;;;;20.05;14.02;;;15.00;99.90;;;;;;5035769;28;20102;-71
2022/06/09 06:42:25;;;;;;;15.77;13.45;;;15.20;99.90;;;;;;5015944;28;20159;-72
2022/06/09 06:44:51;;;;;;;21.58;17.15;;;15.30;99.90;;;;;;5018637;28;20065;-72
2022/06/09 06:47:17;;;;;;;21.52;16.45;;;15.40;99.90;;;;;;5029488;28;20162;-72
2022/06/09 06:49:42;;;;;;;19.42;13.65;;;15.60;99.90;;;;;;5034700;28;20047;-72
2022/06/09 06:52:09;;;;;;;16.80;12.85;;;15.70;99.90;;;;;;5032379;28;20719;-72
2022/06/09 06:54:34;;;;;;;14.00;12.70;;;15.60;99.90;;;;;;5026070;28;20048;-72
2022/06/09 06:57:00;;;;;;;17.73;14.40;;;15.80;99.90;;;;;;5032347;28;20048;-72
2022/06/09 06:59:26;;;;;;;15.32;11.88;;;15.90;99.90;;;;;;5034167;28;20396;-72
2022/06/09 07:01:51;;;;;;;16.58;11.77;;;15.90;99.90;;;;;;5032767;28;20061;-72
2022/06/09 07:04:17;;;;;;;17.75;13.88;;;16.00;99.90;;;;;;5034526;28;20136;-73
2022/06/09 07:06:43;;;;;;;14.00;11.98;;;16.10;99.90;;;;;;5014720;28;20098;-72
2022/06/09 07:09:09;;;;;;;13.35;11.35;;;16.20;99.90;;;;;;5033884;28;20148;-73
2022/06/09 07:11:35;;;;;;;14.25;10.98;;;16.40;99.90;;;;;;5033839;28;20404;-73
2022/06/09 07:14:01;;;;;;;12.07;10.02;;;16.50;99.90;;;;;;5015832;28;20055;-73
2022/06/09 07:16:26;;;;;;;13.95;10.07;;;16.60;99.90;;;;;;5031996;28;20504;-73
2022/06/09 07:18:52;;;;;;;13.73;11.13;;;16.70;99.90;;;;;;5032666;28;20065;-73
2022/06/09 07:21:18;;;;;;;11.45;9.55;;;16.80;99.90;;;;;;5032045;28;20064;-73
2022/06/09 07:23:45;;;;;;;10.90;9.15;;;16.80;99.90;;;;;;5016362;28;20041;-73
2022/06/09 07:26:11;;;;;;;12.68;8.55;;;17.00;99.90;;;;;;5029948;28;20048;-73
2022/06/09 07:28:36;;;;;;;7.40;6.60;;;17.20;99.90;;;;;;5033348;28;20396;-72
2022/06/09 07:31:05;;;;;;;7.20;5.38;;;17.10;99.90;;;;;;5032813;28;20040;-72
2022/06/09 07:33:33;;;;;;;8.95;6.85;;;17.10;99.90;;;;;;5033151;28;20468;-72
2022/06/09 07:36:00;;;;;;;8.45;6.82;;;17.30;99.90;;;;;;5032010;28;20914;-72
2022/06/09 07:38:27;;;;;;;6.93;5.32;;;17.50;99.90;;;;;;5030708;28;20040;-73
2022/06/09 07:40:53;;;;;;;8.10;4.55;;;17.60;99.90;;;;;;5013416;28;20049;-73
2022/06/09 07:43:19;;;;;;;9.57;4.53;;;17.60;99.90;;;;;;5030860;28;20056;-73
2022/06/09 07:45:46;;;;;;;9.25;4.57;;;17.80;99.90;;;;;;5033144;28;20397;-73
2022/06/09 07:48:12;;;;;;;7.38;4.32;;;17.80;99.90;;;;;;5032398;28;20631;-73
2022/06/09 07:50:38;;;;;;;8.80;4.53;;;18.00;99.90;;;;;;5032379;28;20131;-72
2022/06/09 07:53:06;;;;;;;5.47;2.88;;;18.20;99.90;;;;;;5029626;28;20045;-73
2022/06/09 07:55:32;;;;;;;7.00;3.13;;;18.40;99.90;;;;;;5015206;28;20052;-73
2022/06/09 07:57:58;;;;;;;6.57;3.00;;;18.40;99.90;;;;;;5020946;28;20424;-73
2022/06/09 08:00:25;;;;;;;5.05;2.55;;;18.40;99.90;;;;;;5032853;28;20041;-73
2022/06/09 08:02:51;;;;;;;5.40;2.50;;;18.50;99.90;;;;;;5028311;28;20072;-74
2022/06/09 08:05:20;;;;;;;3.50;2.60;;;18.60;99.90;;;;;;5031158;28;20060;-75
2022/06/09 08:07:46;;;;;;;6.07;2.40;;;18.70;99.90;;;;;;5005096;28;20104;-75
2022/06/09 08:10:20;;;;;;;5.13;2.38;;;18.80;99.90;;;;;;5014998;28;20569;-75
2022/06/09 08:12:50;;;;;;;4.20;1.40;;;18.80;99.90;;;;;;5030658;28;20049;-75
2022/06/09 08:15:17;;;;;;;4.70;1.65;;;19.10;99.90;;;;;;5028972;28;20133;-75
2022/06/09 08:17:43;;;;;;;4.35;1.50;;;19.50;99.90;;;;;;5030121;28;20049;-77
2022/06/09 08:20:10;;;;;;;4.97;1.23;;;19.90;99.90;;;;;;5029631;28;20044;-76
2022/06/09 08:22:40;;;;;;;3.90;1.20;;;20.20;99.90;;;;;;5028435;28;20140;-76
2022/06/09 08:25:08;;;;;;;5.22;1.25;;;20.40;99.90;;;;;;5016559;28;20478;-76
2022/06/09 08:27:35;;;;;;;2.88;1.10;;;20.70;99.90;;;;;;5024744;28;20481;-76
2022/06/09 08:30:01;;;;;;;4.85;1.40;;;20.80;99.90;;;;;;5024277;28;20577;-76
2022/06/09 08:32:26;;;;;;;7.35;1.45;;;20.80;99.90;;;;;;5023570;28;20127;-76
2022/06/09 08:34:52;;;;;;;5.07;1.50;;;20.60;99.90;;;;;;5027205;28;20068;-77
2022/06/09 08:37:17;;;;;;;5.88;0.90;;;20.30;99.90;;;;;;5029370;28;20045;-76
2022/06/09 08:39:43;;;;;;;2.88;0.82;;;20.00;99.90;;;;;;5026837;28;20041;-76
2022/06/09 08:42:30;;;;;;;6.25;1.00;;;20.10;99.90;;;;;;5014694;28;20045;-76
2022/06/09 08:44:57;;;;;;;3.33;0.55;;;20.40;99.90;;;;;;5012318;28;20580;-76
2022/06/09 08:47:29;;;;;;;3.58;0.88;;;20.90;99.90;;;;;;5015077;28;20406;-76
2022/06/09 08:50:01;;;;;;;3.97;0.68;;;21.00;99.90;;;;;;5011619;28;20041;-76
2022/06/09 08:52:30;;;;;;;5.18;0.82;;;21.00;99.90;;;;;;5014290;28;20044;-76
2022/06/09 08:54:57;;;;;;;4.90;0.80;;;21.20;99.90;;;;;;5015407;28;20110;-76
2022/06/09 08:57:35;;;;;;;6.13;1.08;;;21.50;99.90;;;;;;5027852;28;20046;-76
2022/06/09 09:00:01;;;;;;;4.07;0.55;;;21.50;99.90;;;;;;5030484;28;20045;-75
2022/06/09 09:03:03;;;;;;;4.47;0.60;;;21.70;99.90;;;;;;5012196;28;20083;-75
2022/06/09 09:05:54;;;;;;;5.88;0.90;;;22.00;99.90;;;;;;5000229;28;20055;-75
2022/06/09 09:08:20;;;;;;;3.25;0.70;;;22.30;99.90;;;;;;5011818;28;20045;-76
2022/06/09 09:11:02;;;;;;;3.33;0.70;;;22.30;99.90;;;;;;5031886;28;20044;-76
2022/06/09 09:13:38;;;;;;;2.92;0.80;;;22.00;99.90;;;;;;5029169;28;20041;-76
2022/06/09 09:16:09;;;;;;;2.60;0.50;;;22.10;99.90;;;;;;5025957;28;20050;-76
2022/06/09 09:18:48;;;;;;;3.60;0.50;;;22.30;99.90;;;;;;5024771;28;20068;-76
2022/06/09 09:21:35;;;;;;;4.50;0.60;;;22.20;99.90;;;;;;5029708;28;20072;-76
2022/06/09 09:24:46;;;;;;;3.53;0.52;;;21.80;99.90;;;;;;5030673;28;20508;-76
2022/06/09 09:27:31;;;;;;;5.28;0.70;;;21.60;99.90;;;;;;5009116;28;20120;-76
2022/06/09 09:30:12;;;;;;;5.55;0.70;;;21.80;99.90;;;;;;5030293;28;20458;-76
2022/06/09 09:33:01;;;;;;;3.75;0.50;;;22.20;99.90;;;;;;5029840;28;20072;-76
2022/06/09 09:35:30;;;;;;;2.60;0.52;;;22.70;99.90;;;;;;5030540;28;20556;-76
2022/06/09 09:37:57;;;;;;;2.72;0.30;;;23.10;99.90;;;;;;5027027;28;20045;-76
2022/06/09 09:40:43;;;;;;;2.70;0.60;;;23.20;99.50;;;;;;5029305;28;20055;-76
2022/06/09 09:43:37;;;;;;;5.30;0.80;;;22.60;96.70;;;;;;5030473;28;20078;-76
2022/06/09 09:46:04;;;;;;;5.82;0.80;;;21.80;96.80;;;;;;5018577;28;20178;-76
2022/06/09 09:48:42;;;;;;;6.05;1.20;;;21.30;99.90;;;;;;5032360;28;20052;-75
2022/06/09 09:51:12;;;;;;;5.15;0.90;;;21.10;99.90;;;;;;5028672;28;20064;-74
2022/06/09 09:53:40;;;;;;;5.97;1.17;;;21.50;99.90;;;;;;5026730;28;20052;-76
2022/06/09 09:56:18;;;;;;;4.78;0.50;;;21.80;99.90;;;;;;5012190;28;20042;-75
2022/06/09 09:58:47;;;;;;;4.15;0.90;;;22.10;99.90;;;;;;5024079;28;20103;-75
2022/06/09 10:01:22;;;;;;;3.85;0.80;;;22.30;99.90;;;;;;5029494;28;20124;-76
2022/06/09 10:09:44;;;;;;;3.92;0.80;;;23.30;98.20;;;;;;5029010;28;20076;-76
2022/06/09 10:12:23;;;;;;;3.85;0.75;;;23.50;96.60;;;;;;5027638;28;20068;-77
2022/06/09 10:15:04;;;;;;;4.93;0.73;;;23.60;96.60;;;;;;5027201;28;20081;-76
2022/06/09 10:17:33;;;;;;;4.85;0.55;;;23.70;93.50;;;;;;5028608;28;20046;-76
2022/06/09 10:20:19;;;;;;;3.50;0.60;;;23.60;94.80;;;;;;5026889;28;20476;-76
2022/06/09 10:23:13;;;;;;;5.75;0.95;;;23.60;88.30;;;;;;5027144;28;20049;-77
2022/06/09 10:26:06;;;;;;;3.08;0.50;;;23.40;86.90;;;;;;5023324;28;20049;-77
2022/06/09 10:28:47;;;;;;;3.78;0.80;;;23.20;91.90;;;;;;5009263;28;20061;-77
2022/06/09 10:31:35;;;;;;;6.50;0.82;;;23.30;89.40;;;;;;5032862;28;20477;-77
2022/06/09 10:34:17;;;;;;;5.10;0.98;;;23.50;89.10;;;;;;5032778;28;20050;-75
2022/06/09 10:36:49;;;;;;;6.10;0.90;;;23.70;93.30;;;;;;5006761;28;20084;-76
2022/06/09 10:39:20;;;;;;;6.47;1.10;;;24.10;93.20;;;;;;5031868;28;20053;-76
2022/06/09 10:42:15;;;;;;;5.63;0.95;;;24.10;90.00;;;;;;5029402;28;20045;-76
2022/06/09 10:44:49;;;;;;;3.25;0.68;;;23.90;84.40;;;;;;5010796;28;20532;-76
2022/06/09 10:56:23;;;;;;;6.75;0.80;;;23.30;90.10;;;;;;5029691;28;20124;-76
2022/06/09 10:58:56;;;;;;;4.80;0.95;;;23.20;90.00;;;;;;5014032;28;20390;-76
2022/06/09 11:01:27;;;;;;;4.97;0.65;;;23.20;88.90;;;;;;5023611;28;20049;-76
2022/06/09 11:03:56;;;;;;;3.70;0.60;;;23.50;90.10;;;;;;5026791;28;20056;-77
2022/06/09 11:06:36;;;;;;;4.88;0.70;;;23.60;86.00;;;;;;5021383;28;20049;-76
2022/06/09 11:09:20;;;;;;;4.40;0.65;;;23.60;84.70;;;;;;5011385;28;20076;-76
2022/06/09 11:12:16;;;;;;;3.85;0.70;;;23.60;83.00;;;;;;5028967;28;20053;-76
2022/06/09 11:15:09;;;;;;;4.57;0.63;;;23.40;79.50;;;;;;5010626;28;20489;-77
2022/06/09 11:17:56;;;;;;;4.17;0.77;;;23.20;79.20;;;;;;5030781;28;20071;-76
2022/06/09 11:20:54;;;;;;;4.63;0.63;;;22.80;83.40;;;;;;5013860;28;20041;-76
2022/06/09 11:23:53;;;;;;;3.78;0.75;;;22.90;85.00;;;;;;5009915;28;20053;-76
2022/06/09 11:26:54;;;;;;;5.97;1.10;;;23.40;86.60;;;;;;5015020;28;20119;-76
2022/06/09 11:29:40;;;;;;;3.85;0.60;;;23.90;82.90;;;;;;5013197;28;20065;-76
2022/06/09 11:32:11;;;;;;;4.80;0.90;;;24.00;80.50;;;;;;5024107;28;20060;-76
2022/06/09 11:35:11;;;;;;;2.90;0.98;;;24.20;83.00;;;;;;5028564;28;20103;-75
2022/06/09 11:37:52;;;;;;;5.60;0.90;;;24.60;78.10;;;;;;5011990;28;20046;-76
2022/06/09 11:40:37;;;;;;;4.68;0.68;;;24.70;80.20;;;;;;5026489;28;20140;-75
2022/06/09 11:43:20;;;;;;;6.38;0.65;;;24.60;75.20;;;;;;5028231;28;20465;-76
2022/06/09 11:45:56;;;;;;;3.70;0.80;;;24.60;76.30;;;;;;5029151;28;20050;-77
2022/06/09 11:48:28;;;;;;;4.43;0.93;;;24.60;77.80;;;;;;5030143;28;20081;-76
2022/06/09 11:50:55;;;;;;;5.57;0.98;;;24.60;75.80;;;;;;5015086;28;20064;-75
2022/06/09 11:53:26;;;;;;;5.72;0.90;;;24.40;75.60;;;;;;5032311;28;20053;-76
2022/06/09 11:56:33;;;;;;;4.00;0.75;;;23.90;76.10;;;;;;5013818;28;20045;-76
2022/06/09 11:59:11;;;;;;;6.53;1.00;;;23.30;73.50;;;;;;5031029;28;20126;-75
2022/06/09 12:01:39;;;;;;;4.60;0.88;;;23.20;78.90;;;;;;5029293;28;20041;-76
2022/06/09 12:04:43;;;;;;;3.75;0.75;;;23.20;77.70;;;;;;5031153;28;20045;-75
2022/06/09 12:07:34;;;;;;;3.65;0.70;;;23.60;78.60;;;;;;5028969;28;20136;-76
2022/06/09 12:10:19;;;;;;;6.38;1.00;;;23.80;79.30;;;;;;5021141;28;20472;-75
2022/06/09 12:13:22;;;;;;;6.07;0.90;;;23.90;80.80;;;;;;5029374;28;20477;-75
2022/06/09 12:16:01;;;;;;;3.15;0.77;;;24.40;77.20;;;;;;5032441;28;20053;-77
2022/06/09 12:18:40;;;;;;;3.95;0.73;;;24.50;76.70;;;;;;5032192;28;20106;-76
2022/06/09 12:21:13;;;;;;;1.90;0.40;;;24.00;70.40;;;;;;5030818;28;20056;-75
2022/06/09 12:23:55;;;;;;;4.38;0.40;;;23.20;70.10;;;;;;5019424;28;20045;-75
2022/06/09 12:26:38;;;;;;;3.58;0.45;;;22.80;72.90;;;;;;5031288;28;20415;-75
2022/06/09 12:29:19;;;;;;;2.10;0.20;;;22.80;75.90;;;;;;5029719;28;20080;-75
2022/06/09 12:32:09;;;;;;;3.15;0.45;;;23.00;75.20;;;;;;5030593;28;20349;-75
2022/06/09 12:34:45;;;;;;;4.50;0.77;;;23.30;75.50;;;;;;5031774;28;20122;-73
2022/06/09 12:37:31;;;;;;;4.68;0.57;;;23.50;74.40;;;;;;5029381;28;20060;-73
2022/06/09 12:40:04;;;;;;;3.05;0.70;;;23.70;74.40;;;;;;5032122;28;20118;-74
2022/06/09 12:42:32;;;;;;;5.07;0.75;;;23.80;72.00;;;;;;5032027;28;20059;-73
2022/06/09 12:45:17;;;;;;;4.53;0.60;;;23.80;73.80;;;;;;5032341;28;20168;-73
2022/06/09 12:47:58;;;;;;;5.93;1.00;;;23.90;73.90;;;;;;5015871;28;20067;-74
2022/06/09 12:50:30;;;;;;;2.67;0.47;;;24.20;69.40;;;;;;5027479;28;20041;-75
2022/06/09 12:52:57;;;;;;;3.17;0.63;;;24.00;66.80;;;;;;5024865;28;20045;-75
2022/06/09 12:55:28;;;;;;;4.05;0.57;;;23.80;70.30;;;;;;5010099;28;20052;-74
2022/06/09 12:58:04;;;;;;;3.17;0.55;;;23.60;70.40;;;;;;5027484;28;20132;-75
2022/06/09 13:00:40;;;;;;;4.32;0.80;;;23.40;68.60;;;;;;5029134;28;20473;-75
2022/06/09 13:03:25;;;;;;;4.05;0.68;;;23.30;74.00;;;;;;5027089;28;20056;-74
2022/06/09 13:05:52;;;;;;;5.53;0.90;;;23.30;69.20;;;;;;5029801;28;20046;-73
2022/06/09 13:08:22;;;;;;;5.40;0.60;;;23.10;70.80;;;;;;5026843;28;20389;-76
2022/06/09 13:11:03;;;;;;;3.22;0.60;;;22.90;69.00;;;;;;5011274;28;20053;-75
2022/06/09 13:13:41;;;;;;;2.83;0.63;;;22.60;70.50;;;;;;5025299;28;20080;-75
2022/06/09 13:16:12;;;;;;;3.65;0.50;;;22.40;72.30;;;;;;5025598;28;20486;-76
2022/06/09 13:18:46;;;;;;;4.07;0.52;;;22.30;72.40;;;;;;5029634;28;20616;-76
2022/06/09 13:21:15;;;;;;;6.95;0.80;;;22.40;73.20;;;;;;5027985;28;20041;-75
2022/06/09 13:23:44;;;;;;;4.60;0.82;;;22.50;71.00;;;;;;5009166;28;20076;-76
2022/06/09 13:26:14;;;;;;;6.35;0.80;;;22.70;71.80;;;;;;5015138;28;20073;-73